createdAt,value
2022-12-11T00:01:15.008Z,34.38
2022-12-11T00:03:42.270Z,35.58
2022-12-11T00:06:11.686Z,33.97
2022-12-11T00:08:39.053Z,34.85
2022-12-11T00:11:08.735Z,36.00
2022-12-11T00:13:36.002Z,35.53
2022-12-11T00:16:03.267Z,36.58
2022-12-11T00:18:30.522Z,35.60
2022-12-11T00:21:01.836Z,34.53
2022-12-11T00:23:29.211Z,37.00
2022-12-11T00:25:56.511Z,36.28
2022-12-11T00:28:23.791Z,35.00
2022-12-11T00:30:51.575Z,36.30
2022-12-11T00:33:18.848Z,33.63
2022-12-11T00:35:46.778Z,31.38
2022-12-11T00:38:18.338Z,33.13
2022-12-11T00:40:45.719Z,33.72
2022-12-11T00:43:13.183Z,33.20
2022-12-11T00:45:47.033Z,32.70
2022-12-11T00:48:14.413Z,23.85
2022-12-11T00:50:42.388Z,31.98
2022-12-11T00:53:09.682Z,32.65
2022-12-11T00:55:37.963Z,31.00
2022-12-11T00:58:05.204Z,33.03
2022-12-11T01:00:32.401Z,30.55
2022-12-11T01:02:59.645Z,30.60
2022-12-11T01:05:26.952Z,30.60
2022-12-11T01:07:54.187Z,30.95
2022-12-11T01:10:24.465Z,29.98
2022-12-11T01:12:56.482Z,29.73
2022-12-11T01:15:25.625Z,28.77
2022-12-11T01:17:52.969Z,29.85
2022-12-11T01:20:20.858Z,28.73
2022-12-11T01:22:48.198Z,28.75
2022-12-11T01:25:15.389Z,29.27
2022-12-11T01:27:42.620Z,27.98
2022-12-11T01:30:10.342Z,28.20
2022-12-11T01:32:37.596Z,26.63
2022-12-11T01:35:05.990Z,25.58
2022-12-11T01:37:33.799Z,26.77
2022-12-11T01:40:01.343Z,25.42
2022-12-11T01:42:31.246Z,25.50
2022-12-11T01:45:27.042Z,25.73
2022-12-11T01:48:05.226Z,25.50
2022-12-11T01:50:34.115Z,24.17
2022-12-11T01:53:01.391Z,23.98
2022-12-11T01:55:28.611Z,25.15
2022-12-11T01:57:55.894Z,24.35
2022-12-11T02:00:23.127Z,24.30
2022-12-11T02:02:50.687Z,25.15
2022-12-11T02:05:17.950Z,25.40
2022-12-11T02:07:50.655Z,24.65
2022-12-11T02:10:18.035Z,25.00
2022-12-11T02:12:53.325Z,23.98
2022-12-11T02:15:44.397Z,25.35
2022-12-11T02:18:34.651Z,24.25
2022-12-11T02:21:22.615Z,24.95
2022-12-11T02:23:58.924Z,25.33
2022-12-11T02:26:39.364Z,25.05
2022-12-11T02:29:08.715Z,25.15
2022-12-11T02:31:47.605Z,25.20
2022-12-11T02:34:30.738Z,24.70
2022-12-11T02:37:00.579Z,23.42
2022-12-11T02:39:27.851Z,23.10
2022-12-11T02:41:55.079Z,23.67
2022-12-11T02:44:27.006Z,23.75
2022-12-11T02:46:54.330Z,24.38
2022-12-11T02:49:21.667Z,24.17
2022-12-11T02:51:48.920Z,23.23
2022-12-11T02:54:30.454Z,24.88
2022-12-11T02:57:05.494Z,23.88
2022-12-11T02:59:40.670Z,24.73
2022-12-11T03:02:08.075Z,24.40
2022-12-11T03:04:36.153Z,25.45
2022-12-11T03:07:14.407Z,26.05
2022-12-11T03:09:42.537Z,25.38
2022-12-11T03:12:11.016Z,26.48
2022-12-11T03:14:38.674Z,23.83
2022-12-11T03:17:37.879Z,25.23
2022-12-11T03:20:17.191Z,25.05
2022-12-11T03:23:04.483Z,23.60
2022-12-11T03:25:47.320Z,23.90
2022-12-11T03:28:30.976Z,22.92
2022-12-11T03:30:58.513Z,22.67
2022-12-11T03:33:32.679Z,24.05
2022-12-11T03:36:03.945Z,23.33
2022-12-11T03:38:52.787Z,21.85
2022-12-11T03:41:21.462Z,21.55
2022-12-11T03:43:49.159Z,22.67
2022-12-11T03:46:16.392Z,21.38
2022-12-11T03:48:44.255Z,22.83
2022-12-11T03:51:11.538Z,21.92
2022-12-11T03:53:39.160Z,21.25
2022-12-11T03:56:07.274Z,21.27
2022-12-11T03:58:34.473Z,21.25
2022-12-11T04:01:01.763Z,20.90
2022-12-11T04:03:29.046Z,21.27
2022-12-11T04:05:56.327Z,21.23
2022-12-11T04:08:23.718Z,21.42
2022-12-11T04:11:11.062Z,22.45
2022-12-11T04:13:38.631Z,21.65
2022-12-11T04:16:06.229Z,22.35
2022-12-11T04:18:52.438Z,21.23
2022-12-11T04:21:39.856Z,20.70
2022-12-11T04:24:16.789Z,21.45
2022-12-11T04:26:45.037Z,19.90
2022-12-11T04:29:12.739Z,20.80
2022-12-11T04:31:40.088Z,23.15
2022-12-11T04:34:07.320Z,22.95
2022-12-11T04:36:34.572Z,23.23
2022-12-11T04:39:01.815Z,21.60
2022-12-11T04:41:29.091Z,22.65
2022-12-11T04:43:56.378Z,22.52
2022-12-11T04:46:24.334Z,22.65
2022-12-11T04:48:57.028Z,21.52
2022-12-11T04:51:25.090Z,22.55
2022-12-11T04:53:52.361Z,21.13
2022-12-11T04:56:19.659Z,23.02
2022-12-11T04:58:47.014Z,21.55
2022-12-11T05:01:16.560Z,23.15
2022-12-11T05:03:43.974Z,23.48
2022-12-11T05:06:11.350Z,21.52
2022-12-11T05:08:40.297Z,21.90
2022-12-11T05:11:09.693Z,22.38
2022-12-11T05:13:36.980Z,22.48
2022-12-11T05:16:05.441Z,21.58
2022-12-11T05:18:32.771Z,22.48
2022-12-11T05:21:04.828Z,21.98
2022-12-11T05:23:32.050Z,21.30
2022-12-11T05:26:01.783Z,20.27
2022-12-11T05:28:30.062Z,20.42
2022-12-11T05:31:04.792Z,19.88
2022-12-11T05:33:32.090Z,21.70
2022-12-11T05:35:59.371Z,19.17
2022-12-11T05:38:26.601Z,18.85
2022-12-11T05:41:01.611Z,18.25
2022-12-11T05:43:30.422Z,18.05
2022-12-11T05:46:04.642Z,18.73
2022-12-11T05:48:31.999Z,18.48
2022-12-11T05:50:59.982Z,19.50
2022-12-11T05:53:27.485Z,17.00
2022-12-11T05:55:54.751Z,17.45
2022-12-11T05:58:21.975Z,19.33
2022-12-11T06:00:49.195Z,21.42
2022-12-11T06:03:16.503Z,21.38
2022-12-11T06:05:43.850Z,18.05
2022-12-11T06:08:11.123Z,18.30
2022-12-11T06:10:38.384Z,18.27
2022-12-11T06:13:05.579Z,18.17
2022-12-11T06:15:32.874Z,18.63
2022-12-11T06:18:00.227Z,18.77
2022-12-11T06:20:27.455Z,20.13
2022-12-11T06:22:54.648Z,19.60
2022-12-11T06:25:21.848Z,20.85
2022-12-11T06:27:49.788Z,22.17
2022-12-11T06:30:17.096Z,20.75
2022-12-11T06:32:44.514Z,21.50
2022-12-11T06:35:12.256Z,21.48
2022-12-11T06:37:40.463Z,20.92
2022-12-11T06:40:09.043Z,20.98
2022-12-11T06:42:36.363Z,21.05
2022-12-11T06:45:03.978Z,21.67
2022-12-11T06:47:31.318Z,21.73
2022-12-11T06:49:58.688Z,22.25
2022-12-11T06:52:27.355Z,20.50
2022-12-11T06:54:54.796Z,22.67
2022-12-11T06:57:22.270Z,20.58
2022-12-11T06:59:49.574Z,23.23
2022-12-11T07:02:17.760Z,22.85
2022-12-11T07:04:44.989Z,21.50
2022-12-11T07:07:12.243Z,22.13
2022-12-11T07:09:40.175Z,22.90
2022-12-11T07:12:07.508Z,20.92
2022-12-11T07:14:34.872Z,20.10
2022-12-11T07:17:02.128Z,21.33
2022-12-11T07:19:29.398Z,20.45
2022-12-11T07:21:56.618Z,21.83
2022-12-11T07:24:23.945Z,20.10
2022-12-11T07:26:51.166Z,22.63
2022-12-11T07:29:18.609Z,20.55
2022-12-11T07:31:45.866Z,20.40
2022-12-11T07:34:14.023Z,23.63
2022-12-11T07:36:41.241Z,21.95
2022-12-11T07:39:09.107Z,24.00
2022-12-11T07:41:36.391Z,24.33
2022-12-11T07:44:05.788Z,22.83
2022-12-11T07:46:33.272Z,22.63
2022-12-11T07:49:03.349Z,22.75
2022-12-11T07:51:32.024Z,22.73
2022-12-11T07:54:00.832Z,20.58
2022-12-11T07:56:28.747Z,22.77
2022-12-11T07:58:56.010Z,23.30
2022-12-11T08:01:25.943Z,23.23
2022-12-11T08:03:53.622Z,26.92
2022-12-11T08:06:24.196Z,22.77
2022-12-11T08:08:51.410Z,22.85
2022-12-11T08:11:18.621Z,23.30
2022-12-11T08:13:45.900Z,20.65
2022-12-11T08:16:14.240Z,20.40
2022-12-11T08:18:41.690Z,21.38
2022-12-11T08:21:10.469Z,21.45
2022-12-11T08:23:37.782Z,22.13
2022-12-11T08:26:07.424Z,20.80
2022-12-11T08:28:34.703Z,20.95
2022-12-11T08:31:04.521Z,22.77
2022-12-11T08:33:31.906Z,21.75
2022-12-11T08:36:01.953Z,22.15
2022-12-11T08:38:29.201Z,20.13
2022-12-11T08:40:56.475Z,20.60
2022-12-11T08:43:23.723Z,21.05
2022-12-11T08:45:51.004Z,19.50
2022-12-11T08:48:18.240Z,18.95
2022-12-11T08:50:45.456Z,19.75
2022-12-11T08:53:13.108Z,20.05
2022-12-11T08:55:40.622Z,18.95
2022-12-11T08:58:08.079Z,19.48
2022-12-11T09:00:36.643Z,18.10
2022-12-11T09:03:08.414Z,17.92
2022-12-11T09:05:38.719Z,18.13
2022-12-11T09:08:05.991Z,16.73
2022-12-11T09:10:33.255Z,16.45
2022-12-11T09:13:00.473Z,16.10
2022-12-11T09:15:27.756Z,15.15
2022-12-11T09:17:55.007Z,15.93
2022-12-11T09:20:22.236Z,15.77
2022-12-11T09:22:49.444Z,16.20
2022-12-11T09:25:16.740Z,15.60
2022-12-11T09:27:43.939Z,14.77
2022-12-11T09:30:11.533Z,15.20
2022-12-11T09:32:39.829Z,14.30
2022-12-11T09:35:07.992Z,14.95
2022-12-11T09:37:35.406Z,14.40
2022-12-11T09:40:10.029Z,14.20
2022-12-11T09:42:51.114Z,15.60
2022-12-11T09:45:18.533Z,17.08
2022-12-11T09:47:54.319Z,14.50
2022-12-11T09:50:32.739Z,15.02
2022-12-11T09:53:13.082Z,14.60
2022-12-11T09:56:29.387Z,14.35
2022-12-11T09:59:06.019Z,14.18
2022-12-11T10:01:39.067Z,14.77
2022-12-11T10:04:06.309Z,14.30
2022-12-11T10:06:38.433Z,13.35
2022-12-11T10:09:11.830Z,14.15
2022-12-11T10:11:54.466Z,14.68
2022-12-11T10:14:38.660Z,13.48
2022-12-11T10:17:27.931Z,13.45
2022-12-11T10:19:56.938Z,14.60
2022-12-11T10:22:26.436Z,14.25
2022-12-11T10:25:10.846Z,14.50
2022-12-11T10:27:39.178Z,14.93
2022-12-11T10:30:22.914Z,14.75
2022-12-11T10:33:09.987Z,14.13
2022-12-11T10:36:03.932Z,14.52
2022-12-11T10:38:36.812Z,14.60
2022-12-11T10:41:05.841Z,12.65
2022-12-11T10:43:36.887Z,13.55
2022-12-11T10:46:05.104Z,12.88
2022-12-11T10:48:32.438Z,14.07
2022-12-11T10:51:06.984Z,13.57
2022-12-11T10:53:34.488Z,13.20
2022-12-11T10:56:01.712Z,14.50
2022-12-11T10:58:33.742Z,12.80
2022-12-11T11:01:03.417Z,14.05
2022-12-11T11:03:30.676Z,13.05
2022-12-11T11:06:05.937Z,13.68
2022-12-11T11:08:41.434Z,13.02
2022-12-11T11:11:17.146Z,12.63
2022-12-11T11:13:44.355Z,13.32
2022-12-11T11:16:17.596Z,13.35
2022-12-11T11:18:55.941Z,12.18
2022-12-11T11:21:24.439Z,12.07
2022-12-11T11:23:53.653Z,12.50
2022-12-11T11:26:22.743Z,12.02
2022-12-11T11:28:54.549Z,12.45
2022-12-11T11:31:31.681Z,11.35
2022-12-11T11:34:00.903Z,11.70
2022-12-11T11:36:29.710Z,12.10
2022-12-11T11:39:20.539Z,11.05
2022-12-11T11:42:11.134Z,10.40
2022-12-11T11:44:41.768Z,11.38
2022-12-11T11:47:14.317Z,10.38
2022-12-11T11:49:53.291Z,10.63
2022-12-11T11:52:32.755Z,11.13
2022-12-11T11:55:20.275Z,10.15
2022-12-11T11:57:57.219Z,10.77
2022-12-11T12:00:30.336Z,11.07
2022-12-11T12:03:13.290Z,10.73
2022-12-11T12:05:46.511Z,10.52
2022-12-11T12:08:38.574Z,10.60
2022-12-11T12:11:40.303Z,11.05
2022-12-11T12:17:38.139Z,10.10
2022-12-11T12:20:19.281Z,11.05
2022-12-11T12:23:10.629Z,11.48
2022-12-11T12:25:59.891Z,10.00
2022-12-11T12:28:41.686Z,11.10
2022-12-11T12:31:13.359Z,11.23
2022-12-11T12:34:14.772Z,12.43
2022-12-11T12:37:05.177Z,11.48
2022-12-11T12:39:50.998Z,10.68
2022-12-11T12:42:36.974Z,11.57
2022-12-11T12:45:17.950Z,11.90
2022-12-11T12:47:51.780Z,12.07
2022-12-11T12:50:23.118Z,11.23
2022-12-11T12:52:51.388Z,10.93
2022-12-11T12:55:28.987Z,8.93
2022-12-11T12:58:00.675Z,8.48
2022-12-11T13:00:27.999Z,9.32
2022-12-11T13:02:56.218Z,10.65
2022-12-11T13:05:28.324Z,10.85
2022-12-11T13:07:57.541Z,10.45
2022-12-11T13:10:32.109Z,9.32
2022-12-11T13:15:31.423Z,8.77
2022-12-11T13:17:59.594Z,8.38
2022-12-11T13:20:28.786Z,8.85
2022-12-11T13:23:00.165Z,8.85
2022-12-11T13:25:29.771Z,8.52
2022-12-11T13:28:07.610Z,8.00
2022-12-11T13:30:35.117Z,8.77
2022-12-11T13:33:16.246Z,8.05
2022-12-11T13:35:43.456Z,8.60
2022-12-11T13:38:18.309Z,6.60
2022-12-11T13:40:46.635Z,6.97
2022-12-11T13:43:24.644Z,7.10
2022-12-11T13:45:53.573Z,7.75
2022-12-11T13:48:33.755Z,7.30
2022-12-11T13:51:01.098Z,7.03
2022-12-11T13:53:28.358Z,7.07
2022-12-11T13:55:57.395Z,7.38
2022-12-11T13:58:24.753Z,7.43
2022-12-11T14:01:20.588Z,8.50
2022-12-11T14:03:55.162Z,8.18
2022-12-11T14:08:51.010Z,8.27
2022-12-11T14:11:32.973Z,8.07
2022-12-11T14:14:01.567Z,8.60
2022-12-11T14:16:28.906Z,8.75
2022-12-11T14:19:06.669Z,7.90
2022-12-11T14:21:33.974Z,7.75
2022-12-11T14:24:03.473Z,8.18
2022-12-11T14:26:32.354Z,9.15
2022-12-11T14:28:59.692Z,8.95
2022-12-11T14:31:37.636Z,9.45
2022-12-11T14:34:35.251Z,7.95
2022-12-11T14:37:03.683Z,8.57
2022-12-11T14:39:44.280Z,8.68
2022-12-11T14:42:14.875Z,8.00
2022-12-11T14:44:51.558Z,7.82
2022-12-11T14:47:27.350Z,8.02
2022-12-11T14:50:02.273Z,8.93
2022-12-11T14:52:51.800Z,8.40
2022-12-11T14:55:32.823Z,7.30
2022-12-11T14:58:04.607Z,9.32
2022-12-11T15:00:35.838Z,8.68
2022-12-11T15:03:10.032Z,9.15
2022-12-11T15:05:55.043Z,9.80
2022-12-11T15:08:27.138Z,9.70
2022-12-11T15:11:14.630Z,10.18
2022-12-11T15:13:58.955Z,10.00
2022-12-11T15:16:27.954Z,10.55
2022-12-11T15:18:55.791Z,10.85
2022-12-11T15:21:35.851Z,10.63
2022-12-11T15:24:04.131Z,11.48
2022-12-11T15:26:39.159Z,13.13
2022-12-11T15:29:29.499Z,12.23
2022-12-11T15:32:20.281Z,12.95
2022-12-11T15:34:52.422Z,12.52
2022-12-11T15:37:22.689Z,13.82
2022-12-11T15:39:50.231Z,14.63
2022-12-11T15:42:23.491Z,15.15
2022-12-11T15:44:50.767Z,14.23
2022-12-11T15:47:20.982Z,14.35
2022-12-11T15:49:48.207Z,15.15
2022-12-11T15:52:15.691Z,14.52
2022-12-11T15:54:42.906Z,12.60
2022-12-11T15:57:13.109Z,13.38
2022-12-11T15:59:40.308Z,12.80
2022-12-11T16:02:13.645Z,13.48
2022-12-11T16:04:40.923Z,13.07
2022-12-11T16:07:16.215Z,13.70
2022-12-11T16:09:43.470Z,16.40
2022-12-11T16:12:10.929Z,15.60
2022-12-11T16:14:39.166Z,15.93
2022-12-11T16:17:07.196Z,16.10
2022-12-11T16:19:34.635Z,21.20
2022-12-11T16:22:02.034Z,31.45
2022-12-11T16:24:29.311Z,29.00
2022-12-11T16:26:56.525Z,21.75
2022-12-11T16:29:23.795Z,22.75
2022-12-11T16:31:51.007Z,22.15
2022-12-11T16:34:18.294Z,17.48
2022-12-11T16:36:45.559Z,18.23
2022-12-11T16:39:12.774Z,18.05
2022-12-11T16:41:40.043Z,18.20
2022-12-11T16:44:07.401Z,18.42
2022-12-11T16:46:34.809Z,17.85
2022-12-11T16:49:02.087Z,18.40
2022-12-11T16:51:29.321Z,20.67
2022-12-11T16:53:56.651Z,18.95
2022-12-11T16:56:24.966Z,19.27
2022-12-11T16:58:52.194Z,20.25
2022-12-11T17:01:19.563Z,19.55
2022-12-11T17:03:46.887Z,18.75
2022-12-11T17:06:15.225Z,17.33
2022-12-11T17:08:42.693Z,18.48
2022-12-11T17:11:12.052Z,18.42
2022-12-11T17:13:39.442Z,18.88
2022-12-11T17:16:07.912Z,16.13
2022-12-11T17:18:35.259Z,17.75
2022-12-11T17:21:07.199Z,18.30
2022-12-11T17:23:34.518Z,18.38
2022-12-11T17:26:02.594Z,18.05
2022-12-11T17:28:30.053Z,18.95
2022-12-11T17:30:57.755Z,17.65
2022-12-11T17:33:25.085Z,18.58
2022-12-11T17:35:52.293Z,18.10
2022-12-11T17:38:19.695Z,18.27
2022-12-11T17:40:47.289Z,18.85
2022-12-11T17:43:14.539Z,19.60
2022-12-11T17:45:42.703Z,19.90
2022-12-11T17:48:10.165Z,19.92
2022-12-11T17:50:46.893Z,19.95
2022-12-11T17:53:14.878Z,19.05
2022-12-11T17:55:42.595Z,18.50
2022-12-11T17:58:14.075Z,19.38
2022-12-11T18:00:42.618Z,18.27
2022-12-11T18:03:09.847Z,18.35
2022-12-11T18:05:44.691Z,18.83
2022-12-11T18:08:16.308Z,18.50
2022-12-11T18:10:43.743Z,18.13
2022-12-11T18:13:11.683Z,16.95
2022-12-11T18:15:39.013Z,16.52
2022-12-11T18:18:06.844Z,16.33
2022-12-11T18:20:34.353Z,16.67
2022-12-11T18:23:01.805Z,16.20
2022-12-11T18:25:29.038Z,16.17
2022-12-11T18:27:56.630Z,15.90
2022-12-11T18:30:24.348Z,17.02
2022-12-11T18:32:51.990Z,16.48
2022-12-11T18:35:19.498Z,16.55
2022-12-11T18:37:48.347Z,15.40
2022-12-11T18:40:15.616Z,16.25
2022-12-11T18:42:42.842Z,16.20
2022-12-11T18:45:10.720Z,15.32
2022-12-11T18:47:38.803Z,15.18
2022-12-11T18:50:08.155Z,15.10
2022-12-11T18:52:35.562Z,15.65
2022-12-11T18:55:03.539Z,15.10
2022-12-11T18:57:30.840Z,14.88
2022-12-11T19:00:02.337Z,15.65
2022-12-11T19:02:29.610Z,16.42
2022-12-11T19:04:56.818Z,16.00
2022-12-11T19:07:24.212Z,16.35
2022-12-11T19:09:51.459Z,17.48
2022-12-11T19:12:18.718Z,16.30
2022-12-11T19:14:45.973Z,16.55
2022-12-11T19:17:13.261Z,15.43
2022-12-11T19:19:40.709Z,15.90
2022-12-11T19:22:08.367Z,15.70
2022-12-11T19:24:35.610Z,15.23
2022-12-11T19:27:02.869Z,16.10
2022-12-11T19:29:32.473Z,15.50
2022-12-11T19:32:01.360Z,16.48
2022-12-11T19:34:28.650Z,16.90
2022-12-11T19:36:56.118Z,18.17
2022-12-11T19:39:23.358Z,17.50
2022-12-11T19:41:50.674Z,17.50
2022-12-11T19:44:17.990Z,18.88
2022-12-11T19:46:45.425Z,17.77
2022-12-11T19:49:12.939Z,18.02
2022-12-11T19:51:40.935Z,17.60
2022-12-11T19:54:09.552Z,17.73
2022-12-11T19:56:36.919Z,16.65
2022-12-11T19:59:05.547Z,18.13
2022-12-11T20:01:33.731Z,17.23
2022-12-11T20:04:03.116Z,18.15
2022-12-11T20:06:31.354Z,17.05
2022-12-11T20:08:58.818Z,16.30
2022-12-11T20:11:26.295Z,17.30
2022-12-11T20:13:55.513Z,17.50
2022-12-11T20:16:39.515Z,17.88
2022-12-11T20:19:10.353Z,18.75
2022-12-11T20:21:37.614Z,19.10
2022-12-11T20:24:05.152Z,17.83
2022-12-11T20:26:35.941Z,17.27
2022-12-11T20:29:05.248Z,18.08
2022-12-11T20:31:33.117Z,17.42
2022-12-11T20:34:00.495Z,17.27
2022-12-11T20:36:27.810Z,18.15
2022-12-11T20:38:55.164Z,17.67
2022-12-11T20:41:23.634Z,18.23
2022-12-11T20:43:52.983Z,17.65
2022-12-11T20:46:20.829Z,16.70
2022-12-11T20:48:48.291Z,18.00
2022-12-11T20:51:19.681Z,18.02
2022-12-11T20:53:56.435Z,17.50
2022-12-11T20:56:23.861Z,16.67
2022-12-11T20:58:51.079Z,15.95
2022-12-11T21:01:21.238Z,16.65
2022-12-11T21:03:48.995Z,17.38
2022-12-11T21:06:25.740Z,16.55
2022-12-11T21:08:53.291Z,18.60
2022-12-11T21:11:20.836Z,16.60
2022-12-11T21:13:51.507Z,17.20
2022-12-11T21:16:19.099Z,17.00
2022-12-11T21:18:46.976Z,18.42
2022-12-11T21:21:14.341Z,20.15
2022-12-11T21:23:41.616Z,22.13
2022-12-11T21:26:08.856Z,21.05
2022-12-11T21:28:36.157Z,18.83
2022-12-11T21:31:06.504Z,18.77
2022-12-11T21:33:34.162Z,18.92
2022-12-11T21:36:01.372Z,18.08
2022-12-11T21:38:28.735Z,17.52
2022-12-11T21:40:56.038Z,16.75
2022-12-11T21:43:23.806Z,16.88
2022-12-11T21:46:07.019Z,16.98
2022-12-11T21:48:34.398Z,17.10
2022-12-11T21:51:32.572Z,17.23
2022-12-11T21:54:05.262Z,19.05
2022-12-11T21:56:32.485Z,17.77
2022-12-11T21:59:01.310Z,18.33
2022-12-11T22:01:34.965Z,17.40
2022-12-11T22:04:02.352Z,18.25
2022-12-11T22:06:29.570Z,16.95
2022-12-11T22:08:56.898Z,17.30
2022-12-11T22:11:26.736Z,19.10
2022-12-11T22:13:54.061Z,31.40
2022-12-11T22:16:21.343Z,37.13
2022-12-11T22:18:48.661Z,45.55
2022-12-11T22:21:15.887Z,37.30
2022-12-11T22:23:43.481Z,25.67
2022-12-11T22:26:20.464Z,20.38
2022-12-11T22:28:47.990Z,20.05
2022-12-11T22:31:16.804Z,22.75
2022-12-11T22:33:44.407Z,22.15
2022-12-11T22:36:11.702Z,20.58
2022-12-11T22:38:39.620Z,19.75
2022-12-11T22:41:17.557Z,18.15
2022-12-11T22:43:49.379Z,18.23
2022-12-11T22:46:17.449Z,19.63
2022-12-11T22:48:44.752Z,18.77
2022-12-11T22:51:12.140Z,19.92
2022-12-11T22:53:39.350Z,18.52
2022-12-11T22:56:07.668Z,19.70
2022-12-11T22:58:34.920Z,19.85
2022-12-11T23:01:02.530Z,19.58
2022-12-11T23:03:29.842Z,17.08
2022-12-11T23:06:00.772Z,17.13
2022-12-11T23:08:31.207Z,17.83
2022-12-11T23:10:58.576Z,16.65
2022-12-11T23:13:25.764Z,16.60
2022-12-11T23:15:52.981Z,16.13
2022-12-11T23:18:20.209Z,15.27
2022-12-11T23:20:48.959Z,15.90
2022-12-11T23:23:16.186Z,15.60
2022-12-11T23:25:43.434Z,15.55
2022-12-11T23:28:10.681Z,15.65
2022-12-11T23:30:38.122Z,14.32
2022-12-11T23:33:06.570Z,14.77
2022-12-11T23:35:33.843Z,13.65
2022-12-11T23:38:01.087Z,14.52
2022-12-11T23:40:28.311Z,14.35
2022-12-11T23:42:55.515Z,14.65
2022-12-11T23:45:22.738Z,14.13
2022-12-11T23:47:49.974Z,14.93
2022-12-11T23:50:18.641Z,14.68
2022-12-11T23:52:45.861Z,14.50
2022-12-11T23:55:13.589Z,14.55
2022-12-11T23:57:41.029Z,16.35
